sensor_id;sensor_type;location;lat;lon;timestamp;pressure;altitude;pressure_sealevel;temperature;humidity
58927;BME280;44712;52.530;9.760;2023-03-03T00:01:27;101884.41;;;-0.14;100.00
58927;BME280;44712;52.530;9.760;2023-03-03T00:03:54;101896.13;;;-0.10;100.00
58927;BME280;44712;52.530;9.760;2023-03-03T00:06:21;101901.53;;;-0.09;100.00
58927;BME280;44712;52.530;9.760;2023-03-03T00:08:49;101899.84;;;-0.07;100.00
58927;BME280;44712;52.530;9.760;2023-03-03T00:11:16;101906.03;;;-0.08;100.00
58927;BME280;44712;52.530;9.760;2023-03-03T00:13:46;101911.47;;;-0.05;100.00
58927;BME280;44712;52.530;9.760;2023-03-03T00:16:22;101902.44;;;-0.08;100.00
58927;BME280;44712;52.530;9.760;2023-03-03T00:18:50;101900.53;;;-0.11;100.00
58927;BME280;44712;52.530;9.760;2023-03-03T00:21:32;101908.38;;;-0.14;100.00
58927;BME280;44712;52.530;9.760;2023-03-03T00:24:19;101907.63;;;-0.11;100.00
58927;BME280;44712;52.530;9.760;2023-03-03T00:26:49;101909.50;;;-0.09;100.00
58927;BME280;44712;52.530;9.760;2023-03-03T00:31:54;101906.78;;;-0.10;100.00
58927;BME280;44712;52.530;9.760;2023-03-03T00:34:27;101898.78;;;-0.10;100.00
58927;BME280;44712;52.530;9.760;2023-03-03T00:36:55;101902.50;;;-0.07;100.00
58927;BME280;44712;52.530;9.760;2023-03-03T00:39:30;101908.81;;;-0.05;100.00
58927;BME280;44712;52.530;9.760;2023-03-03T00:41:59;101898.03;;;-0.08;100.00
58927;BME280;44712;52.530;9.760;2023-03-03T00:44:44;101893.53;;;-0.09;100.00
58927;BME280;44712;52.530;9.760;2023-03-03T00:52:35;101898.25;;;-0.03;100.00
58927;BME280;44712;52.530;9.760;2023-03-03T00:55:03;101888.66;;;0.01;100.00
58927;BME280;44712;52.530;9.760;2023-03-03T00:57:30;101886.69;;;-0.04;100.00
58927;BME280;44712;52.530;9.760;2023-03-03T00:59:57;101883.22;;;-0.03;100.00
58927;BME280;44712;52.530;9.760;2023-03-03T01:02:24;101890.50;;;0.02;100.00
58927;BME280;44712;52.530;9.760;2023-03-03T01:04:52;101883.47;;;0.04;100.00
58927;BME280;44712;52.530;9.760;2023-03-03T01:07:22;101897.63;;;0.03;100.00
58927;BME280;44712;52.530;9.760;2023-03-03T01:09:49;101903.88;;;0.03;100.00
58927;BME280;44712;52.530;9.760;2023-03-03T01:12:41;101912.06;;;0.08;100.00
58927;BME280;44712;52.530;9.760;2023-03-03T01:15:09;101897.63;;;0.03;100.00
58927;BME280;44712;52.530;9.760;2023-03-03T01:17:37;101899.47;;;0.04;100.00
58927;BME280;44712;52.530;9.760;2023-03-03T01:20:06;101897.63;;;0.03;100.00
58927;BME280;44712;52.530;9.760;2023-03-03T01:22:33;101885.31;;;0.05;100.00
58927;BME280;44712;52.530;9.760;2023-03-03T01:25:00;101905.03;;;0.08;100.00
58927;BME280;44712;52.530;9.760;2023-03-03T01:27:29;101919.38;;;0.12;100.00
58927;BME280;44712;52.530;9.760;2023-03-03T01:29:57;101924.56;;;0.09;100.00
58927;BME280;44712;52.530;9.760;2023-03-03T01:32:24;101908.28;;;0.03;100.00
58927;BME280;44712;52.530;9.760;2023-03-03T01:34:52;101910.34;;;0.08;100.00
58927;BME280;44712;52.530;9.760;2023-03-03T01:37:19;101909.41;;;0.08;100.00
58927;BME280;44712;52.530;9.760;2023-03-03T01:39:51;101913.06;;;0.10;100.00
58927;BME280;44712;52.530;9.760;2023-03-03T01:42:17;101911.94;;;0.05;100.00
58927;BME280;44712;52.530;9.760;2023-03-03T01:44:48;101895.97;;;0.05;100.00
58927;BME280;44712;52.530;9.760;2023-03-03T01:47:24;101892.31;;;0.03;100.00
58927;BME280;44712;52.530;9.760;2023-03-03T01:49:59;101894.00;;;0.01;100.00
58927;BME280;44712;52.530;9.760;2023-03-03T01:52:34;101895.06;;;0.04;100.00
58927;BME280;44712;52.530;9.760;2023-03-03T01:55:05;101896.97;;;0.07;100.00
58927;BME280;44712;52.530;9.760;2023-03-03T01:57:39;101890.78;;;0.08;100.00
58927;BME280;44712;52.530;9.760;2023-03-03T02:00:09;101890.63;;;0.05;100.00
58927;BME280;44712;52.530;9.760;2023-03-03T02:02:40;101886.16;;;0.04;100.00
58927;BME280;44712;52.530;9.760;2023-03-03T02:05:12;101881.06;;;0.08;100.00
58927;BME280;44712;52.530;9.760;2023-03-03T02:07:40;101889.25;;;0.13;100.00
58927;BME280;44712;52.530;9.760;2023-03-03T02:10:16;101887.59;;;0.15;100.00
58927;BME280;44712;52.530;9.760;2023-03-03T02:12:54;101891.09;;;0.14;100.00
58927;BME280;44712;52.530;9.760;2023-03-03T02:15:28;101873.91;;;0.07;100.00
58927;BME280;44712;52.530;9.760;2023-03-03T02:18:06;101881.97;;;0.09;100.00
58927;BME280;44712;52.530;9.760;2023-03-03T02:23:32;101867.81;;;0.10;100.00
58927;BME280;44712;52.530;9.760;2023-03-03T02:26:15;101857.03;;;0.07;100.00
58927;BME280;44712;52.530;9.760;2023-03-03T02:28:43;101859.75;;;0.08;100.00
58927;BME280;44712;52.530;9.760;2023-03-03T02:31:16;101851.84;;;0.10;100.00
58927;BME280;44712;52.530;9.760;2023-03-03T02:33:46;101850.00;;;0.09;100.00
58927;BME280;44712;52.530;9.760;2023-03-03T02:36:37;101848.03;;;0.05;100.00
58927;BME280;44712;52.530;9.760;2023-03-03T02:39:18;101847.41;;;0.10;100.00
58927;BME280;44712;52.530;9.760;2023-03-03T02:44:44;101842.38;;;0.16;100.00
58927;BME280;44712;52.530;9.760;2023-03-03T02:47:11;101853.03;;;0.16;100.00
58927;BME280;44712;52.530;9.760;2023-03-03T02:49:38;101854.63;;;0.13;100.00
58927;BME280;44712;52.530;9.760;2023-03-03T02:52:07;101856.84;;;0.22;100.00
58927;BME280;44712;52.530;9.760;2023-03-03T02:54:36;101850.31;;;0.15;100.00
58927;BME280;44712;52.530;9.760;2023-03-03T02:57:04;101846.78;;;0.16;100.00
58927;BME280;44712;52.530;9.760;2023-03-03T02:59:31;101861.22;;;0.21;100.00
58927;BME280;44712;52.530;9.760;2023-03-03T03:02:10;101865.59;;;0.19;100.00
58927;BME280;44712;52.530;9.760;2023-03-03T03:04:36;101868.38;;;0.22;100.00
58927;BME280;44712;52.530;9.760;2023-03-03T03:07:03;101871.19;;;0.25;100.00
58927;BME280;44712;52.530;9.760;2023-03-03T03:09:32;101863.91;;;0.21;100.00
58927;BME280;44712;52.530;9.760;2023-03-03T03:12:01;101863.06;;;0.22;100.00
58927;BME280;44712;52.530;9.760;2023-03-03T03:14:30;101862.00;;;0.19;100.00
58927;BME280;44712;52.530;9.760;2023-03-03T03:16:57;101867.25;;;0.17;100.00
58927;BME280;44712;52.530;9.760;2023-03-03T03:19:26;101866.41;;;0.18;100.00
58927;BME280;44712;52.530;9.760;2023-03-03T03:21:53;101864.59;;;0.17;100.00
58927;BME280;44712;52.530;9.760;2023-03-03T03:24:20;101863.91;;;0.21;100.00
58927;BME280;44712;52.530;9.760;2023-03-03T03:26:53;101857.88;;;0.25;100.00
58927;BME280;44712;52.530;9.760;2023-03-03T03:29:21;101864.13;;;0.26;100.00
58927;BME280;44712;52.530;9.760;2023-03-03T03:31:48;101853.47;;;0.26;100.00
58927;BME280;44712;52.530;9.760;2023-03-03T03:34:14;101858.72;;;0.24;100.00
58927;BME280;44712;52.530;9.760;2023-03-03T03:36:42;101865.72;;;0.22;100.00
58927;BME280;44712;52.530;9.760;2023-03-03T03:39:10;101867.50;;;0.22;100.00
58927;BME280;44712;52.530;9.760;2023-03-03T03:41:40;101871.88;;;0.21;100.00
58927;BME280;44712;52.530;9.760;2023-03-03T03:44:07;101869.16;;;0.20;100.00
58927;BME280;44712;52.530;9.760;2023-03-03T03:46:35;101884.22;;;0.19;100.00
58927;BME280;44712;52.530;9.760;2023-03-03T03:49:02;101871.88;;;0.21;100.00
58927;BME280;44712;52.530;9.760;2023-03-03T03:51:29;101871.88;;;0.21;100.00
58927;BME280;44712;52.530;9.760;2023-03-03T03:53:57;101880.09;;;0.26;100.00
58927;BME280;44712;52.530;9.760;2023-03-03T03:56:23;101873.84;;;0.25;100.00
58927;BME280;44712;52.530;9.760;2023-03-03T03:58:55;101880.75;;;0.20;100.00
58927;BME280;44712;52.530;9.760;2023-03-03T04:01:21;101880.75;;;0.20;100.00
58927;BME280;44712;52.530;9.760;2023-03-03T04:03:50;101881.50;;;0.18;100.00
58927;BME280;44712;52.530;9.760;2023-03-03T04:06:20;101884.06;;;0.16;100.00
58927;BME280;44712;52.530;9.760;2023-03-03T04:08:47;101885.75;;;0.14;100.00
58927;BME280;44712;52.530;9.760;2023-03-03T04:11:14;101888.56;;;0.17;100.00
58927;BME280;44712;52.530;9.760;2023-03-03T04:13:42;101891.53;;;0.23;100.00
58927;BME280;44712;52.530;9.760;2023-03-03T04:16:10;101888.78;;;0.22;100.00
58927;BME280;44712;52.530;9.760;2023-03-03T04:18:41;101892.34;;;0.22;100.00
58927;BME280;44712;52.530;9.760;2023-03-03T04:21:14;101886.19;;;0.23;100.00
58927;BME280;44712;52.530;9.760;2023-03-03T04:23:42;101879.03;;;0.22;100.00
58927;BME280;44712;52.530;9.760;2023-03-03T04:26:09;101886.19;;;0.23;100.00
58927;BME280;44712;52.530;9.760;2023-03-03T04:28:37;101886.06;;;0.20;100.00
58927;BME280;44712;52.530;9.760;2023-03-03T04:31:04;101882.59;;;0.23;100.00
58927;BME280;44712;52.530;9.760;2023-03-03T04:33:31;101887.88;;;0.21;100.00
58927;BME280;44712;52.530;9.760;2023-03-03T04:35:59;101897.81;;;0.25;100.00
58927;BME280;44712;52.530;9.760;2023-03-03T04:38:26;101891.66;;;0.26;100.00
58927;BME280;44712;52.530;9.760;2023-03-03T04:40:55;101898.00;;;0.28;100.00
58927;BME280;44712;52.530;9.760;2023-03-03T04:43:23;101900.47;;;0.25;100.00
58927;BME280;44712;52.530;9.760;2023-03-03T04:45:50;101896.72;;;0.20;100.00
58927;BME280;44712;52.530;9.760;2023-03-03T04:48:17;101894.94;;;0.21;100.00
58927;BME280;44712;52.530;9.760;2023-03-03T04:50:45;101899.59;;;0.25;100.00
58927;BME280;44712;52.530;9.760;2023-03-03T04:53:12;101901.41;;;0.26;100.00
58927;BME280;44712;52.530;9.760;2023-03-03T04:55:40;101897.13;;;0.29;100.00
58927;BME280;44712;52.530;9.760;2023-03-03T04:58:08;101891.66;;;0.26;100.00
58927;BME280;44712;52.530;9.760;2023-03-03T05:00:37;101891.66;;;0.26;100.00
58927;BME280;44712;52.530;9.760;2023-03-03T05:03:04;101889.81;;;0.25;100.00
58927;BME280;44712;52.530;9.760;2023-03-03T05:05:31;101882.72;;;0.24;100.00
58927;BME280;44712;52.530;9.760;2023-03-03T05:07:58;101882.53;;;0.21;100.00
58927;BME280;44712;52.530;9.760;2023-03-03T05:10:25;101883.53;;;0.23;100.00
58927;BME280;44712;52.530;9.760;2023-03-03T05:12:51;101872.75;;;0.20;100.00
58927;BME280;44712;52.530;9.760;2023-03-03T05:15:18;101870.91;;;0.19;100.00
58927;BME280;44712;52.530;9.760;2023-03-03T05:17:44;101868.09;;;0.16;100.00
58927;BME280;44712;52.530;9.760;2023-03-03T05:20:12;101861.94;;;0.17;100.00
58927;BME280;44712;52.530;9.760;2023-03-03T05:22:39;101858.38;;;0.16;100.00
58927;BME280;44712;52.530;9.760;2023-03-03T05:25:06;101868.09;;;0.16;100.00
58927;BME280;44712;52.530;9.760;2023-03-03T05:27:32;101864.59;;;0.17;100.00
58927;BME280;44712;52.530;9.760;2023-03-03T05:29:59;101866.34;;;0.16;100.00
58927;BME280;44712;52.530;9.760;2023-03-03T05:32:26;101863.56;;;0.13;100.00
58927;BME280;44712;52.530;9.760;2023-03-03T05:34:52;101864.31;;;0.11;100.00
58927;BME280;44712;52.530;9.760;2023-03-03T05:37:19;101871.63;;;0.15;100.00
58927;BME280;44712;52.530;9.760;2023-03-03T05:39:46;101863.63;;;0.15;100.00
58927;BME280;44712;52.530;9.760;2023-03-03T05:42:13;101861.78;;;0.14;100.00
58927;BME280;44712;52.530;9.760;2023-03-03T05:44:40;101860.97;;;0.15;100.00
58927;BME280;44712;52.530;9.760;2023-03-03T05:47:06;101862.75;;;0.16;100.00
58927;BME280;44712;52.530;9.760;2023-03-03T05:49:33;101860.09;;;0.16;100.00
58927;BME280;44712;52.530;9.760;2023-03-03T05:52:02;101855.56;;;0.13;100.00
58927;BME280;44712;52.530;9.760;2023-03-03T05:54:29;101859.13;;;0.14;100.00
58927;BME280;44712;52.530;9.760;2023-03-03T05:56:56;101873.28;;;0.13;100.00
58927;BME280;44712;52.530;9.760;2023-03-03T06:02:57;101885.91;;;0.17;100.00
58927;BME280;44712;52.530;9.760;2023-03-03T06:05:24;101896.72;;;0.20;100.00
58927;BME280;44712;52.530;9.760;2023-03-03T06:07:50;101909.16;;;0.21;100.00
58927;BME280;44712;52.530;9.760;2023-03-03T06:10:18;101912.91;;;0.25;100.00
58927;BME280;44712;52.530;9.760;2023-03-03T06:12:49;101908.47;;;0.25;100.00
58927;BME280;44712;52.530;9.760;2023-03-03T06:15:17;101911.31;;;0.28;100.00
58927;BME280;44712;52.530;9.760;2023-03-03T06:17:44;101918.28;;;0.26;100.00
58927;BME280;44712;52.530;9.760;2023-03-03T06:20:11;101923.63;;;0.26;100.00
58927;BME280;44712;52.530;9.760;2023-03-03T06:22:55;101923.34;;;0.20;100.00
58927;BME280;44712;52.530;9.760;2023-03-03T06:25:22;101933.31;;;0.24;100.00
58927;BME280;44712;52.530;9.760;2023-03-03T06:27:48;101931.53;;;0.25;100.00
58927;BME280;44712;52.530;9.760;2023-03-03T06:30:15;101933.50;;;0.29;100.00
58927;BME280;44712;52.530;9.760;2023-03-03T06:32:42;101931.69;;;0.28;100.00
58927;BME280;44712;52.530;9.760;2023-03-03T06:35:09;101927.13;;;0.25;100.00
58927;BME280;44712;52.530;9.760;2023-03-03T06:37:37;101932.16;;;0.19;100.00
58927;BME280;44712;52.530;9.760;2023-03-03T06:40:05;101936.56;;;0.19;100.00
58927;BME280;44712;52.530;9.760;2023-03-03T06:42:32;101935.97;;;0.24;100.00
58927;BME280;44712;52.530;9.760;2023-03-03T06:44:58;101934.28;;;0.26;100.00
58927;BME280;44712;52.530;9.760;2023-03-03T06:47:25;101938.06;;;0.31;100.00
58927;BME280;44712;52.530;9.760;2023-03-03T06:49:52;101938.97;;;0.32;100.00
58927;BME280;44712;52.530;9.760;2023-03-03T06:52:25;101943.53;;;0.35;100.00
58927;BME280;44712;52.530;9.760;2023-03-03T06:54:54;101940.75;;;0.31;100.00
58927;BME280;44712;52.530;9.760;2023-03-03T06:57:29;101951.63;;;0.36;100.00
58927;BME280;44712;52.530;9.760;2023-03-03T07:00:12;101944.63;;;0.38;100.00
58927;BME280;44712;52.530;9.760;2023-03-03T07:02:41;101946.44;;;0.39;100.00
58927;BME280;44712;52.530;9.760;2023-03-03T07:05:16;101938.38;;;0.38;100.00
58927;BME280;44712;52.530;9.760;2023-03-03T07:07:43;101943.84;;;0.41;100.00
58927;BME280;44712;52.530;9.760;2023-03-03T07:10:27;101941.88;;;0.37;100.00
58927;BME280;44712;52.530;9.760;2023-03-03T07:12:57;101943.00;;;0.42;100.00
58927;BME280;44712;52.530;9.760;2023-03-03T07:15:34;101951.00;;;0.42;100.00
58927;BME280;44712;52.530;9.760;2023-03-03T07:18:01;101946.81;;;0.47;100.00
58927;BME280;44712;52.530;9.760;2023-03-03T07:20:35;101943.97;;;0.44;100.00
58927;BME280;44712;52.530;9.760;2023-03-03T07:23:24;101953.75;;;0.43;100.00
58927;BME280;44712;52.530;9.760;2023-03-03T07:25:52;101957.38;;;0.45;100.00
58927;BME280;44712;52.530;9.760;2023-03-03T07:28:27;101955.63;;;0.46;100.00
58927;BME280;44712;52.530;9.760;2023-03-03T07:30:55;101950.38;;;0.47;100.00
58927;BME280;44712;52.530;9.760;2023-03-03T07:33:28;101954.81;;;0.47;100.00
58927;BME280;44712;52.530;9.760;2023-03-03T07:35:58;101956.59;;;0.48;100.00
58927;BME280;44712;52.530;9.760;2023-03-03T07:38:38;101956.59;;;0.48;100.00
58927;BME280;44712;52.530;9.760;2023-03-03T07:41:17;101963.63;;;0.46;100.00
58927;BME280;44712;52.530;9.760;2023-03-03T07:46:28;101961.03;;;0.47;100.00
58927;BME280;44712;52.530;9.760;2023-03-03T07:48:57;101962.09;;;0.51;100.00
58927;BME280;44712;52.530;9.760;2023-03-03T07:53:59;101974.34;;;0.47;100.00
58927;BME280;44712;52.530;9.760;2023-03-03T07:56:38;101974.44;;;0.49;100.00
58927;BME280;44712;52.530;9.760;2023-03-03T07:59:22;101972.00;;;0.54;100.00
58927;BME280;44712;52.530;9.760;2023-03-03T08:01:55;101980.06;;;0.55;100.00
58927;BME280;44712;52.530;9.760;2023-03-03T08:04:29;101987.34;;;0.59;100.00
58927;BME280;44712;52.530;9.760;2023-03-03T08:07:01;101982.94;;;0.60;100.00
58927;BME280;44712;52.530;9.760;2023-03-03T08:09:41;101984.00;;;0.63;100.00
58927;BME280;44712;52.530;9.760;2023-03-03T08:12:23;101987.63;;;0.65;100.00
58927;BME280;44712;52.530;9.760;2023-03-03T08:14:54;101987.81;;;0.69;100.00
58927;BME280;44712;52.530;9.760;2023-03-03T08:17:23;101993.13;;;0.69;100.00
58927;BME280;44712;52.530;9.760;2023-03-03T08:19:52;101993.13;;;0.69;100.00
58927;BME280;44712;52.530;9.760;2023-03-03T08:22:33;101994.78;;;0.66;100.00
58927;BME280;44712;52.530;9.760;2023-03-03T08:25:01;102004.56;;;0.66;100.00
58927;BME280;44712;52.530;9.760;2023-03-03T08:27:28;102003.47;;;0.62;100.00
58927;BME280;44712;52.530;9.760;2023-03-03T08:29:54;101998.72;;;0.55;100.00
58927;BME280;44712;52.530;9.760;2023-03-03T08:32:21;102003.34;;;0.59;100.00
58927;BME280;44712;52.530;9.760;2023-03-03T08:34:48;102007.34;;;0.49;100.00
58927;BME280;44712;52.530;9.760;2023-03-03T08:37:14;101996.31;;;0.61;100.00
58927;BME280;44712;52.530;9.760;2023-03-03T08:39:41;101993.91;;;0.66;100.00
58927;BME280;44712;52.530;9.760;2023-03-03T08:42:08;101996.94;;;0.74;100.00
58927;BME280;44712;52.530;9.760;2023-03-03T08:44:34;102000.56;;;0.76;100.00
58927;BME280;44712;52.530;9.760;2023-03-03T08:47:01;101991.72;;;0.77;100.00
58927;BME280;44712;52.530;9.760;2023-03-03T08:49:27;102003.22;;;0.76;100.00
58927;BME280;44712;52.530;9.760;2023-03-03T08:51:54;102002.31;;;0.75;100.00
58927;BME280;44712;52.530;9.760;2023-03-03T08:54:22;101999.59;;;0.74;100.00
58927;BME280;44712;52.530;9.760;2023-03-03T08:56:48;101998.91;;;0.78;100.00
58927;BME280;44712;52.530;9.760;2023-03-03T08:59:15;102004.22;;;0.78;100.00
58927;BME280;44712;52.530;9.760;2023-03-03T09:01:42;102002.41;;;0.77;100.00
58927;BME280;44712;52.530;9.760;2023-03-03T09:04:10;101993.56;;;0.78;100.00
58927;BME280;44712;52.530;9.760;2023-03-03T09:06:36;101997.91;;;0.76;100.00
58927;BME280;44712;52.530;9.760;2023-03-03T09:09:03;101996.94;;;0.74;100.00
58927;BME280;44712;52.530;9.760;2023-03-03T09:11:30;101989.13;;;0.78;100.00
58927;BME280;44712;52.530;9.760;2023-03-03T09:16:36;101992.72;;;0.98;100.00
58927;BME280;44712;52.530;9.760;2023-03-03T09:19:27;102002.00;;;1.07;100.00
58927;BME280;44712;52.530;9.760;2023-03-03T09:22:10;102001.72;;;1.00;100.00
58927;BME280;44712;52.530;9.760;2023-03-03T09:24:45;102007.19;;;1.04;100.00
58927;BME280;44712;52.530;9.760;2023-03-03T09:27:35;101998.28;;;1.03;100.00
58927;BME280;44712;52.530;9.760;2023-03-03T09:33:01;102003.41;;;0.98;100.00
58927;BME280;44712;52.530;9.760;2023-03-03T09:35:37;102000.03;;;1.03;100.00
58927;BME280;44712;52.530;9.760;2023-03-03T09:38:25;102001.16;;;1.08;100.00
58927;BME280;44712;52.530;9.760;2023-03-03T09:46:24;101999.31;;;1.07;100.00
58927;BME280;44712;52.530;9.760;2023-03-03T09:54:09;102000.88;;;1.21;100.00
58927;BME280;44712;52.530;9.760;2023-03-03T09:56:50;102003.00;;;1.28;100.00
58927;BME280;44712;52.530;9.760;2023-03-03T10:05:47;102001.28;;;1.50;100.00
58927;BME280;44712;52.530;9.760;2023-03-03T10:25:01;102026.66;;;1.81;100.00
58927;BME280;44712;52.530;9.760;2023-03-03T10:27:56;102025.06;;;1.65;100.00
58927;BME280;44712;52.530;9.760;2023-03-03T10:30:39;102016.16;;;1.64;100.00
58927;BME280;44712;52.530;9.760;2023-03-03T10:33:54;102021.63;;;1.67;100.00
58927;BME280;44712;52.530;9.760;2023-03-03T10:40:00;102029.25;;;1.79;100.00
58927;BME280;44712;52.530;9.760;2023-03-03T10:45:44;102009.94;;;2.06;100.00
58927;BME280;44712;52.530;9.760;2023-03-03T10:48:26;102014.09;;;2.21;100.00
58927;BME280;44712;52.530;9.760;2023-03-03T10:56:53;102030.56;;;2.31;100.00
58927;BME280;44712;52.530;9.760;2023-03-03T11:07:51;102019.88;;;2.31;100.00
58927;BME280;44712;52.530;9.760;2023-03-03T11:10:32;102018.03;;;2.30;100.00
58927;BME280;44712;52.530;9.760;2023-03-03T11:13:13;102020.13;;;2.38;100.00
58927;BME280;44712;52.530;9.760;2023-03-03T11:15:51;102014.91;;;2.41;100.00
58927;BME280;44712;52.530;9.760;2023-03-03T11:24:30;102007.88;;;2.65;100.00
58927;BME280;44712;52.530;9.760;2023-03-03T11:29:51;101997.06;;;2.85;100.00
58927;BME280;44712;52.530;9.760;2023-03-03T11:38:21;101992.16;;;2.97;100.00
58927;BME280;44712;52.530;9.760;2023-03-03T11:40:57;101998.41;;;2.98;100.00
58927;BME280;44712;52.530;9.760;2023-03-03T11:43:43;101990.13;;;2.90;99.96
58927;BME280;44712;52.530;9.760;2023-03-03T11:46:33;101989.59;;;3.00;99.98
58927;BME280;44712;52.530;9.760;2023-03-03T11:49:05;101988.53;;;2.95;99.80
58927;BME280;44712;52.530;9.760;2023-03-03T11:54:21;101982.56;;;3.03;98.40
58927;BME280;44712;52.530;9.760;2023-03-03T11:56:50;101979.50;;;3.16;99.30
58927;BME280;44712;52.530;9.760;2023-03-03T11:59:31;101977.06;;;3.22;98.45
58927;BME280;44712;52.530;9.760;2023-03-03T12:02:26;101986.28;;;3.30;97.64
58927;BME280;44712;52.530;9.760;2023-03-03T12:04:59;101969.38;;;3.31;96.84
58927;BME280;44712;52.530;9.760;2023-03-03T12:07:40;101962.25;;;3.32;97.39
58927;BME280;44712;52.530;9.760;2023-03-03T12:10:25;101960.53;;;3.10;97.65
58927;BME280;44712;52.530;9.760;2023-03-03T12:15:48;101960.75;;;3.16;98.28
58927;BME280;44712;52.530;9.760;2023-03-03T12:21:38;101962.78;;;3.47;97.67
58927;BME280;44712;52.530;9.760;2023-03-03T12:24:31;101954.63;;;3.44;96.49
58927;BME280;44712;52.530;9.760;2023-03-03T12:27:11;101953.22;;;3.54;96.78
58927;BME280;44712;52.530;9.760;2023-03-03T12:33:01;101943.91;;;3.70;96.02
58927;BME280;44712;52.530;9.760;2023-03-03T12:41:55;101938.53;;;3.94;93.31
58927;BME280;44712;52.530;9.760;2023-03-03T12:44:39;101938.00;;;3.79;92.16
58927;BME280;44712;52.530;9.760;2023-03-03T12:47:20;101931.03;;;3.84;92.31
58927;BME280;44712;52.530;9.760;2023-03-03T12:53:38;101928.50;;;4.16;91.93
58927;BME280;44712;52.530;9.760;2023-03-03T12:58:24;101921.91;;;4.33;91.64
58927;BME280;44712;52.530;9.760;2023-03-03T13:01:05;101916.16;;;4.50;90.36
58927;BME280;44712;52.530;9.760;2023-03-03T13:03:57;101913.47;;;4.50;89.96
58927;BME280;44712;52.530;9.760;2023-03-03T13:07:25;101917.78;;;4.45;89.80
58927;BME280;44712;52.530;9.760;2023-03-03T13:23:02;101910.78;;;4.79;89.60
58927;BME280;44712;52.530;9.760;2023-03-03T13:31:23;101897.78;;;4.33;87.71
58927;BME280;44712;52.530;9.760;2023-03-03T13:33:56;101892.44;;;4.06;88.90
58927;BME280;44712;52.530;9.760;2023-03-03T13:36:29;101888.34;;;4.17;90.89
58927;BME280;44712;52.530;9.760;2023-03-03T13:39:06;101886.09;;;4.02;90.54
58927;BME280;44712;52.530;9.760;2023-03-03T13:44:41;101886.00;;;4.28;92.17
58927;BME280;44712;52.530;9.760;2023-03-03T13:50:22;101888.47;;;4.51;92.14
58927;BME280;44712;52.530;9.760;2023-03-03T13:55:34;101881.22;;;4.47;90.17
58927;BME280;44712;52.530;9.760;2023-03-03T13:58:28;101872.44;;;4.52;88.94
58927;BME280;44712;52.530;9.760;2023-03-03T14:00:56;101874.09;;;4.49;88.82
58927;BME280;44712;52.530;9.760;2023-03-03T14:06:18;101867.66;;;4.42;89.78
58927;BME280;44712;52.530;9.760;2023-03-03T14:11:34;101867.03;;;4.51;89.81
58927;BME280;44712;52.530;9.760;2023-03-03T14:14:27;101859.84;;;4.50;89.62
58927;BME280;44712;52.530;9.760;2023-03-03T14:17:11;101861.47;;;4.45;89.25
58927;BME280;44712;52.530;9.760;2023-03-03T14:19:47;101860.63;;;4.46;89.12
58927;BME280;44712;52.530;9.760;2023-03-03T14:22:32;101857.84;;;4.43;89.57
58927;BME280;44712;52.530;9.760;2023-03-03T14:25:06;101859.56;;;4.41;89.88
58927;BME280;44712;52.530;9.760;2023-03-03T14:30:30;101851.94;;;4.24;90.43
58927;BME280;44712;52.530;9.760;2023-03-03T14:32:59;101855.28;;;4.17;90.57
58927;BME280;44712;52.530;9.760;2023-03-03T14:35:38;101851.56;;;4.12;90.67
58927;BME280;44712;52.530;9.760;2023-03-03T14:38:18;101846.84;;;4.05;90.87
58927;BME280;44712;52.530;9.760;2023-03-03T14:40:46;101854.78;;;4.01;91.01
58927;BME280;44712;52.530;9.760;2023-03-03T14:43:25;101840.34;;;3.96;91.83
58927;BME280;44712;52.530;9.760;2023-03-03T14:45:53;101833.16;;;3.66;92.66
58927;BME280;44712;52.530;9.760;2023-03-03T14:48:24;101836.38;;;3.56;92.51
58927;BME280;44712;52.530;9.760;2023-03-03T14:50:59;101836.94;;;3.47;93.57
58927;BME280;44712;52.530;9.760;2023-03-03T14:53:42;101827.88;;;3.69;94.60
58927;BME280;44712;52.530;9.760;2023-03-03T14:56:25;101829.50;;;3.92;93.39
58927;BME280;44712;52.530;9.760;2023-03-03T14:59:12;101828.69;;;3.94;91.79
58927;BME280;44712;52.530;9.760;2023-03-03T15:01:42;101825.88;;;3.91;91.38
58927;BME280;44712;52.530;9.760;2023-03-03T15:04:22;101826.19;;;4.00;92.61
58927;BME280;44712;52.530;9.760;2023-03-03T15:06:53;101823.53;;;4.02;91.86
58927;BME280;44712;52.530;9.760;2023-03-03T15:09:38;101821.53;;;4.54;89.17
58927;BME280;44712;52.530;9.760;2023-03-03T15:12:24;101814.38;;;4.53;86.93
58927;BME280;44712;52.530;9.760;2023-03-03T15:15:03;101817.44;;;4.36;88.32
58927;BME280;44712;52.530;9.760;2023-03-03T15:17:36;101808.34;;;4.31;89.00
58927;BME280;44712;52.530;9.760;2023-03-03T15:26:12;101793.94;;;4.26;89.95
58927;BME280;44712;52.530;9.760;2023-03-03T15:29:13;101793.16;;;4.30;90.27
58927;BME280;44712;52.530;9.760;2023-03-03T15:34:56;101787.59;;;4.24;89.79
58927;BME280;44712;52.530;9.760;2023-03-03T15:54:17;101777.72;;;3.64;93.70
58927;BME280;44712;52.530;9.760;2023-03-03T15:56:57;101777.50;;;3.58;93.49
58927;BME280;44712;52.530;9.760;2023-03-03T16:00:46;101774.00;;;3.31;95.05
58927;BME280;44712;52.530;9.760;2023-03-03T16:02:49;101768.75;;;3.34;95.37
58927;BME280;44712;52.530;9.760;2023-03-03T16:05:45;101768.44;;;3.25;95.75
58927;BME280;44712;52.530;9.760;2023-03-03T16:08:22;101761.25;;;3.24;95.97
58927;BME280;44712;52.530;9.760;2023-03-03T16:11:05;101764.69;;;3.20;96.34
58927;BME280;44712;52.530;9.760;2023-03-03T16:13:46;101766.19;;;3.12;97.13
58927;BME280;44712;52.530;9.760;2023-03-03T16:16:19;101759.25;;;3.17;97.14
58927;BME280;44712;52.530;9.760;2023-03-03T16:22:18;101753.16;;;2.95;98.53
58927;BME280;44712;52.530;9.760;2023-03-03T16:27:50;101757.25;;;2.85;99.05
58927;BME280;44712;52.530;9.760;2023-03-03T16:36:07;101748.06;;;2.77;100.00
58927;BME280;44712;52.530;9.760;2023-03-03T16:38:39;101746.38;;;2.79;100.00